Аэропорт: им. Гейдара Алиева. Баку

ICAO: UBBB

METAR:
2021-07-28 12:30:00
UBBB 281230Z 34032G42KT 9999 SCT037 26/16 Q1012 R88/D NOSIG
METAR:
2021-07-28 11:04:00
TAF UBBB 281104Z 2812/2912 34030G40KT 9999 FEW040CB BKN040 TX26/2712Z TN22/2902Z TEMPO 2812/2817 -SHRA FEW010 SCT033CB PROB40 TEMPO 2812/2816 TS SCT030CB BECMG 2817/2819 34024G34KT PROB40 TEMPO 2819/2824 -TSRA SCT015 BKN040CB BECMG 2906/2908 35018KT